sensor_id;sensor_type;location;lat;lon;timestamp;pressure;altitude;pressure_sealevel;temperature;humidity
54512;BME280;40419;47.438;19.026;2023-03-19T00:00:25;100249.38;;;4.31;88.36
54512;BME280;40419;47.438;19.026;2023-03-19T00:02:56;100256.56;;;4.31;88.88
54512;BME280;40419;47.438;19.026;2023-03-19T00:05:21;100253.50;;;4.43;86.87
54512;BME280;40419;47.438;19.026;2023-03-19T00:07:52;100257.19;;;4.42;87.39
54512;BME280;40419;47.438;19.026;2023-03-19T00:10:20;100248.69;;;4.47;86.73
54512;BME280;40419;47.438;19.026;2023-03-19T00:12:48;100244.25;;;4.38;86.94
54512;BME280;40419;47.438;19.026;2023-03-19T00:15:14;100240.03;;;4.35;87.91
54512;BME280;40419;47.438;19.026;2023-03-19T00:17:42;100251.38;;;4.29;87.60
54512;BME280;40419;47.438;19.026;2023-03-19T00:20:11;100251.13;;;4.22;88.36
54512;BME280;40419;47.438;19.026;2023-03-19T00:22:39;100236.88;;;4.22;87.95
54512;BME280;40419;47.438;19.026;2023-03-19T00:25:10;100236.34;;;4.18;87.87
54512;BME280;40419;47.438;19.026;2023-03-19T00:27:37;100230.91;;;4.28;87.39
54512;BME280;40419;47.438;19.026;2023-03-19T00:30:04;100235.66;;;4.34;86.98
54512;BME280;40419;47.438;19.026;2023-03-19T00:32:33;100239.63;;;4.30;86.93
54512;BME280;40419;47.438;19.026;2023-03-19T00:35:03;100235.03;;;4.22;87.07
54512;BME280;40419;47.438;19.026;2023-03-19T00:37:30;100233.91;;;4.25;87.11
54512;BME280;40419;47.438;19.026;2023-03-19T00:39:59;100228.53;;;4.25;87.03
54512;BME280;40419;47.438;19.026;2023-03-19T00:42:27;100224.56;;;4.29;86.36
54512;BME280;40419;47.438;19.026;2023-03-19T00:44:52;100229.69;;;4.22;87.48
54512;BME280;40419;47.438;19.026;2023-03-19T00:47:23;100231.31;;;4.15;88.12
54512;BME280;40419;47.438;19.026;2023-03-19T00:49:51;100223.63;;;4.20;87.10
54512;BME280;40419;47.438;19.026;2023-03-19T00:52:20;100223.00;;;4.08;88.00
54512;BME280;40419;47.438;19.026;2023-03-19T00:54:48;100222.03;;;4.10;87.53
54512;BME280;40419;47.438;19.026;2023-03-19T00:57:14;100220.31;;;3.90;89.17
54512;BME280;40419;47.438;19.026;2023-03-19T00:59:44;100216.50;;;3.93;88.43
54512;BME280;40419;47.438;19.026;2023-03-19T01:02:09;100214.13;;;3.90;88.42
54512;BME280;40419;47.438;19.026;2023-03-19T01:04:35;100209.00;;;3.97;87.95
54512;BME280;40419;47.438;19.026;2023-03-19T01:07:00;100212.91;;;4.02;87.74
54512;BME280;40419;47.438;19.026;2023-03-19T01:09:27;100210.03;;;3.86;88.57
54512;BME280;40419;47.438;19.026;2023-03-19T01:11:57;100215.25;;;3.87;88.80
54512;BME280;40419;47.438;19.026;2023-03-19T01:14:23;100224.00;;;3.89;88.64
54512;BME280;40419;47.438;19.026;2023-03-19T01:16:51;100223.75;;;3.83;89.17
54512;BME280;40419;47.438;19.026;2023-03-19T01:19:19;100224.88;;;3.80;89.52
54512;BME280;40419;47.438;19.026;2023-03-19T01:21:49;100219.44;;;3.72;89.54
54512;BME280;40419;47.438;19.026;2023-03-19T01:24:20;100218.75;;;3.70;90.51
54512;BME280;40419;47.438;19.026;2023-03-19T01:26:54;100219.63;;;3.61;90.80
54512;BME280;40419;47.438;19.026;2023-03-19T01:29:27;100219.53;;;3.52;91.54
54512;BME280;40419;47.438;19.026;2023-03-19T01:31:55;100215.03;;;3.53;91.53
54512;BME280;40419;47.438;19.026;2023-03-19T01:34:45;100213.94;;;3.46;91.38
54512;BME280;40419;47.438;19.026;2023-03-19T01:37:14;100213.34;;;3.52;91.96
54512;BME280;40419;47.438;19.026;2023-03-19T01:39:46;100205.78;;;3.37;92.97
54512;BME280;40419;47.438;19.026;2023-03-19T01:42:16;100220.44;;;3.43;92.66
54512;BME280;40419;47.438;19.026;2023-03-19T01:45:02;100215.25;;;3.32;93.46
54512;BME280;40419;47.438;19.026;2023-03-19T01:47:40;100207.63;;;3.37;93.38
54512;BME280;40419;47.438;19.026;2023-03-19T01:50:27;100216.56;;;3.28;93.79
54512;BME280;40419;47.438;19.026;2023-03-19T01:53:13;100215.69;;;3.27;94.25
54512;BME280;40419;47.438;19.026;2023-03-19T01:56:21;100217.69;;;3.15;94.70
54512;BME280;40419;47.438;19.026;2023-03-19T01:59:17;100219.09;;;3.29;94.28
54512;BME280;40419;47.438;19.026;2023-03-19T02:04:32;100218.66;;;3.24;94.47
54512;BME280;40419;47.438;19.026;2023-03-19T02:07:03;100209.38;;;3.18;94.63
54512;BME280;40419;47.438;19.026;2023-03-19T02:09:30;100213.66;;;3.11;95.82
54512;BME280;40419;47.438;19.026;2023-03-19T02:12:00;100213.31;;;3.24;94.53
54512;BME280;40419;47.438;19.026;2023-03-19T02:14:29;100206.75;;;3.09;96.30
54512;BME280;40419;47.438;19.026;2023-03-19T02:16:55;100215.59;;;3.19;94.79
54512;BME280;40419;47.438;19.026;2023-03-19T02:22:13;100205.44;;;3.23;93.19
54512;BME280;40419;47.438;19.026;2023-03-19T02:24:52;100213.88;;;3.28;92.41
54512;BME280;40419;47.438;19.026;2023-03-19T02:27:21;100209.66;;;3.25;92.96
54512;BME280;40419;47.438;19.026;2023-03-19T02:29:52;100207.22;;;3.32;91.61
54512;BME280;40419;47.438;19.026;2023-03-19T02:32:19;100198.41;;;3.22;92.17
54512;BME280;40419;47.438;19.026;2023-03-19T02:34:46;100197.53;;;3.31;91.92
54512;BME280;40419;47.438;19.026;2023-03-19T02:37:23;100213.03;;;3.27;92.21
54512;BME280;40419;47.438;19.026;2023-03-19T02:40:01;100210.97;;;3.11;93.79
54512;BME280;40419;47.438;19.026;2023-03-19T02:42:31;100204.22;;;3.07;94.05
54512;BME280;40419;47.438;19.026;2023-03-19T02:45:02;100199.56;;;3.09;93.54
54512;BME280;40419;47.438;19.026;2023-03-19T02:47:28;100203.63;;;3.13;93.50
54512;BME280;40419;47.438;19.026;2023-03-19T02:49:56;100201.66;;;3.15;92.11
54512;BME280;40419;47.438;19.026;2023-03-19T02:52:22;100194.22;;;3.09;92.71
54512;BME280;40419;47.438;19.026;2023-03-19T02:54:47;100198.81;;;3.17;92.57
54512;BME280;40419;47.438;19.026;2023-03-19T02:57:13;100196.00;;;3.18;92.36
54512;BME280;40419;47.438;19.026;2023-03-19T02:59:39;100184.38;;;3.00;93.43
54512;BME280;40419;47.438;19.026;2023-03-19T03:02:07;100193.28;;;3.00;93.59
54512;BME280;40419;47.438;19.026;2023-03-19T03:04:34;100191.97;;;3.05;92.78
54512;BME280;40419;47.438;19.026;2023-03-19T03:07:04;100193.81;;;3.04;92.46
54512;BME280;40419;47.438;19.026;2023-03-19T03:09:30;100199.91;;;2.96;93.09
54512;BME280;40419;47.438;19.026;2023-03-19T03:11:59;100202.00;;;2.93;93.37
54512;BME280;40419;47.438;19.026;2023-03-19T03:14:27;100202.16;;;2.91;93.38
54512;BME280;40419;47.438;19.026;2023-03-19T03:16:54;100192.91;;;2.86;93.58
54512;BME280;40419;47.438;19.026;2023-03-19T03:19:21;100189.78;;;2.80;93.80
54512;BME280;40419;47.438;19.026;2023-03-19T03:21:52;100190.94;;;2.78;94.60
54512;BME280;40419;47.438;19.026;2023-03-19T03:24:18;100205.97;;;2.79;94.02
54512;BME280;40419;47.438;19.026;2023-03-19T03:26:43;100206.41;;;2.84;93.76
54512;BME280;40419;47.438;19.026;2023-03-19T03:29:14;100202.75;;;2.75;94.25
54512;BME280;40419;47.438;19.026;2023-03-19T03:31:42;100187.41;;;2.77;94.80
54512;BME280;40419;47.438;19.026;2023-03-19T03:34:08;100202.03;;;2.73;94.93
54512;BME280;40419;47.438;19.026;2023-03-19T03:36:34;100196.97;;;2.70;94.84
54512;BME280;40419;47.438;19.026;2023-03-19T03:39:01;100199.94;;;2.67;94.96
54512;BME280;40419;47.438;19.026;2023-03-19T03:41:28;100203.63;;;2.66;95.35
54512;BME280;40419;47.438;19.026;2023-03-19T03:43:54;100190.94;;;2.68;95.35
54512;BME280;40419;47.438;19.026;2023-03-19T03:46:20;100204.63;;;2.55;96.01
54512;BME280;40419;47.438;19.026;2023-03-19T03:48:48;100192.38;;;2.43;96.56
54512;BME280;40419;47.438;19.026;2023-03-19T03:51:20;100196.19;;;2.60;95.68
54512;BME280;40419;47.438;19.026;2023-03-19T03:53:46;100193.25;;;2.43;96.73
54512;BME280;40419;47.438;19.026;2023-03-19T03:56:19;100198.84;;;2.50;97.01
54512;BME280;40419;47.438;19.026;2023-03-19T03:58:47;100196.59;;;2.45;96.88
54512;BME280;40419;47.438;19.026;2023-03-19T04:01:16;100192.38;;;2.43;96.98
54512;BME280;40419;47.438;19.026;2023-03-19T04:03:45;100199.69;;;2.51;95.80
54512;BME280;40419;47.438;19.026;2023-03-19T04:06:18;100196.59;;;2.45;96.25
54512;BME280;40419;47.438;19.026;2023-03-19T04:08:54;100200.41;;;2.43;96.90
54512;BME280;40419;47.438;19.026;2023-03-19T04:11:22;100201.38;;;2.52;96.46
54512;BME280;40419;47.438;19.026;2023-03-19T04:13:48;100211.81;;;2.35;96.52
54512;BME280;40419;47.438;19.026;2023-03-19T04:16:14;100205.59;;;2.44;96.54
54512;BME280;40419;47.438;19.026;2023-03-19T04:18:40;100196.19;;;2.60;95.46
54512;BME280;40419;47.438;19.026;2023-03-19T04:21:06;100188.88;;;2.42;95.96
54512;BME280;40419;47.438;19.026;2023-03-19T04:23:32;100197.16;;;2.49;94.93
54512;BME280;40419;47.438;19.026;2023-03-19T04:26:01;100193.66;;;2.48;94.61
54512;BME280;40419;47.438;19.026;2023-03-19T04:28:28;100188.59;;;2.55;94.72
54512;BME280;40419;47.438;19.026;2023-03-19T04:31:03;100183.38;;;2.54;93.59
54512;BME280;40419;47.438;19.026;2023-03-19T04:33:35;100180.44;;;2.57;94.03
54512;BME280;40419;47.438;19.026;2023-03-19T04:36:01;100175.75;;;2.69;92.28
54512;BME280;40419;47.438;19.026;2023-03-19T04:38:28;100171.22;;;2.79;91.63
54512;BME280;40419;47.438;19.026;2023-03-19T04:40:56;100181.22;;;2.77;91.51
54512;BME280;40419;47.438;19.026;2023-03-19T04:43:23;100188.66;;;2.83;91.38
54512;BME280;40419;47.438;19.026;2023-03-19T04:45:50;100188.00;;;2.71;91.87
54512;BME280;40419;47.438;19.026;2023-03-19T04:48:15;100187.00;;;2.72;91.85
54512;BME280;40419;47.438;19.026;2023-03-19T04:50:43;100177.28;;;2.81;91.72
54512;BME280;40419;47.438;19.026;2023-03-19T04:53:10;100180.75;;;2.91;90.44
54512;BME280;40419;47.438;19.026;2023-03-19T04:55:36;100201.22;;;2.82;91.29
54512;BME280;40419;47.438;19.026;2023-03-19T04:58:06;100203.91;;;2.63;93.01
54512;BME280;40419;47.438;19.026;2023-03-19T05:00:35;100202.47;;;2.69;92.49
54512;BME280;40419;47.438;19.026;2023-03-19T05:03:06;100202.75;;;2.65;92.11
54512;BME280;40419;47.438;19.026;2023-03-19T05:05:35;100207.38;;;2.73;90.24
54512;BME280;40419;47.438;19.026;2023-03-19T05:08:05;100198.63;;;2.91;90.94
54512;BME280;40419;47.438;19.026;2023-03-19T05:10:33;100204.22;;;3.07;89.33
54512;BME280;40419;47.438;19.026;2023-03-19T05:12:59;100207.16;;;3.14;89.11
54512;BME280;40419;47.438;19.026;2023-03-19T05:15:25;100208.03;;;3.05;88.36
54512;BME280;40419;47.438;19.026;2023-03-19T05:17:58;100208.41;;;3.19;87.15
54512;BME280;40419;47.438;19.026;2023-03-19T05:20:29;100202.88;;;3.31;87.68
54512;BME280;40419;47.438;19.026;2023-03-19T05:23:02;100202.88;;;3.59;85.66
54512;BME280;40419;47.438;19.026;2023-03-19T05:25:38;100210.75;;;3.32;87.62
54512;BME280;40419;47.438;19.026;2023-03-19T05:28:07;100206.78;;;3.36;87.25
54512;BME280;40419;47.438;19.026;2023-03-19T05:30:35;100217.47;;;3.46;86.15
54512;BME280;40419;47.438;19.026;2023-03-19T05:33:04;100214.84;;;3.64;86.55
54512;BME280;40419;47.438;19.026;2023-03-19T05:35:36;100217.69;;;3.81;85.01
54512;BME280;40419;47.438;19.026;2023-03-19T05:38:05;100226.22;;;3.94;84.27
54512;BME280;40419;47.438;19.026;2023-03-19T05:40:39;100222.53;;;3.95;83.37
54512;BME280;40419;47.438;19.026;2023-03-19T05:43:22;100226.22;;;4.12;83.04
54512;BME280;40419;47.438;19.026;2023-03-19T05:45:49;100220.56;;;3.97;82.68
54512;BME280;40419;47.438;19.026;2023-03-19T05:48:20;100222.03;;;4.28;81.64
54512;BME280;40419;47.438;19.026;2023-03-19T05:50:46;100219.97;;;4.21;80.89
54512;BME280;40419;47.438;19.026;2023-03-19T05:53:20;100225.53;;;4.10;80.92
54512;BME280;40419;47.438;19.026;2023-03-19T05:56:11;100214.31;;;4.24;80.11
54512;BME280;40419;47.438;19.026;2023-03-19T05:58:53;100217.13;;;4.23;79.62
54512;BME280;40419;47.438;19.026;2023-03-19T06:01:24;100225.03;;;4.42;78.91
54512;BME280;40419;47.438;19.026;2023-03-19T06:03:54;100228.69;;;4.23;79.21
54512;BME280;40419;47.438;19.026;2023-03-19T06:06:20;100237.34;;;4.53;79.80
54512;BME280;40419;47.438;19.026;2023-03-19T06:08:50;100236.59;;;4.43;78.50
54512;BME280;40419;47.438;19.026;2023-03-19T06:11:35;100229.34;;;4.61;78.34
54512;BME280;40419;47.438;19.026;2023-03-19T06:14:30;100241.63;;;4.64;78.86
54512;BME280;40419;47.438;19.026;2023-03-19T06:17:24;100233.06;;;4.42;78.70
54512;BME280;40419;47.438;19.026;2023-03-19T06:19:50;100229.97;;;4.55;77.97
54512;BME280;40419;47.438;19.026;2023-03-19T06:22:15;100230.06;;;4.64;77.91
54512;BME280;40419;47.438;19.026;2023-03-19T06:24:44;100242.09;;;4.59;77.60
54512;BME280;40419;47.438;19.026;2023-03-19T06:27:12;100238.38;;;4.78;77.62
54512;BME280;40419;47.438;19.026;2023-03-19T06:29:40;100242.91;;;4.78;76.81
54512;BME280;40419;47.438;19.026;2023-03-19T06:32:20;100256.66;;;5.01;75.51
54512;BME280;40419;47.438;19.026;2023-03-19T06:34:47;100257.34;;;5.29;75.23
54512;BME280;40419;47.438;19.026;2023-03-19T06:37:13;100258.34;;;5.02;74.56
54512;BME280;40419;47.438;19.026;2023-03-19T06:39:41;100264.88;;;5.26;74.86
54512;BME280;40419;47.438;19.026;2023-03-19T06:42:09;100259.25;;;5.11;73.45
54512;BME280;40419;47.438;19.026;2023-03-19T06:44:38;100262.78;;;5.38;73.59
54512;BME280;40419;47.438;19.026;2023-03-19T06:47:05;100269.16;;;5.45;71.94
54512;BME280;40419;47.438;19.026;2023-03-19T06:49:36;100270.75;;;5.29;72.93
54512;BME280;40419;47.438;19.026;2023-03-19T06:52:01;100262.31;;;5.50;72.24
54512;BME280;40419;47.438;19.026;2023-03-19T06:54:30;100269.06;;;5.55;71.45
54512;BME280;40419;47.438;19.026;2023-03-19T06:56:58;100259.94;;;5.82;70.29
54512;BME280;40419;47.438;19.026;2023-03-19T06:59:26;100258.13;;;5.91;69.09
54512;BME280;40419;47.438;19.026;2023-03-19T07:01:56;100259.88;;;6.00;69.34
54512;BME280;40419;47.438;19.026;2023-03-19T07:04:22;100253.53;;;6.17;68.28
54512;BME280;40419;47.438;19.026;2023-03-19T07:06:47;100253.25;;;6.45;67.55
54512;BME280;40419;47.438;19.026;2023-03-19T07:09:13;100252.72;;;6.25;67.16
54512;BME280;40419;47.438;19.026;2023-03-19T07:11:38;100258.06;;;6.17;68.96
54512;BME280;40419;47.438;19.026;2023-03-19T07:14:04;100248.34;;;6.24;68.16
54512;BME280;40419;47.438;19.026;2023-03-19T07:16:32;100249.59;;;5.95;68.87
54512;BME280;40419;47.438;19.026;2023-03-19T07:18:58;100250.81;;;5.66;66.57
54512;BME280;40419;47.438;19.026;2023-03-19T07:21:26;100238.94;;;5.77;69.84
54512;BME280;40419;47.438;19.026;2023-03-19T07:23:51;100243.13;;;6.31;67.13
54512;BME280;40419;47.438;19.026;2023-03-19T07:26:19;100236.75;;;6.40;67.58
54512;BME280;40419;47.438;19.026;2023-03-19T07:28:45;100244.34;;;6.61;66.04
54512;BME280;40419;47.438;19.026;2023-03-19T07:31:11;100251.41;;;6.62;65.73
54512;BME280;40419;47.438;19.026;2023-03-19T07:33:36;100254.47;;;6.67;64.52
54512;BME280;40419;47.438;19.026;2023-03-19T07:36:02;100252.44;;;6.69;65.91
54512;BME280;40419;47.438;19.026;2023-03-19T07:38:27;100259.81;;;7.00;64.39
54512;BME280;40419;47.438;19.026;2023-03-19T07:40:55;100264.47;;;7.23;63.68
54512;BME280;40419;47.438;19.026;2023-03-19T07:43:23;100245.28;;;7.26;63.05
54512;BME280;40419;47.438;19.026;2023-03-19T07:45:51;100245.28;;;7.26;62.15
54512;BME280;40419;47.438;19.026;2023-03-19T07:48:18;100246.00;;;7.03;62.50
54512;BME280;40419;47.438;19.026;2023-03-19T07:50:44;100244.00;;;7.61;61.55
54512;BME280;40419;47.438;19.026;2023-03-19T07:53:09;100242.84;;;7.64;61.40
54512;BME280;40419;47.438;19.026;2023-03-19T07:55:35;100246.66;;;7.70;61.29
54512;BME280;40419;47.438;19.026;2023-03-19T07:58:04;100240.72;;;7.83;61.45
54512;BME280;40419;47.438;19.026;2023-03-19T08:00:30;100246.97;;;8.14;57.72
54512;BME280;40419;47.438;19.026;2023-03-19T08:02:58;100236.06;;;7.68;58.54
54512;BME280;40419;47.438;19.026;2023-03-19T08:05:26;100228.88;;;7.92;58.99
54512;BME280;40419;47.438;19.026;2023-03-19T08:07:54;100234.38;;;8.07;58.42
54512;BME280;40419;47.438;19.026;2023-03-19T08:10:19;100232.69;;;8.06;56.84
54512;BME280;40419;47.438;19.026;2023-03-19T08:12:46;100234.34;;;8.38;56.07
54512;BME280;40419;47.438;19.026;2023-03-19T08:15:12;100233.41;;;8.54;55.86
54512;BME280;40419;47.438;19.026;2023-03-19T08:17:40;100236.19;;;8.38;54.81
54512;BME280;40419;47.438;19.026;2023-03-19T08:20:15;100230.84;;;8.61;53.94
54512;BME280;40419;47.438;19.026;2023-03-19T08:22:43;100226.16;;;8.55;55.63
54512;BME280;40419;47.438;19.026;2023-03-19T08:25:17;100217.88;;;8.56;54.09
54512;BME280;40419;47.438;19.026;2023-03-19T08:27:43;100230.34;;;8.80;54.14
54512;BME280;40419;47.438;19.026;2023-03-19T08:30:09;100232.50;;;8.62;54.02
54512;BME280;40419;47.438;19.026;2023-03-19T08:32:35;100229.81;;;9.00;52.24
54512;BME280;40419;47.438;19.026;2023-03-19T08:35:04;100232.81;;;9.05;51.06
54512;BME280;40419;47.438;19.026;2023-03-19T08:37:30;100230.56;;;8.94;52.85
54512;BME280;40419;47.438;19.026;2023-03-19T08:39:58;100235.78;;;8.95;53.76
54512;BME280;40419;47.438;19.026;2023-03-19T08:42:26;100238.03;;;9.21;51.83
54512;BME280;40419;47.438;19.026;2023-03-19T08:44:53;100230.84;;;8.99;52.29
54512;BME280;40419;47.438;19.026;2023-03-19T08:47:18;100243.00;;;9.18;52.41
54512;BME280;40419;47.438;19.026;2023-03-19T08:49:49;100237.41;;;8.81;52.03
54512;BME280;40419;47.438;19.026;2023-03-19T08:52:20;100242.50;;;9.14;51.48
54512;BME280;40419;47.438;19.026;2023-03-19T08:54:48;100224.91;;;9.33;50.18
54512;BME280;40419;47.438;19.026;2023-03-19T08:57:16;100232.00;;;9.19;50.91
54512;BME280;40419;47.438;19.026;2023-03-19T08:59:44;100230.19;;;9.12;51.07
54512;BME280;40419;47.438;19.026;2023-03-19T09:02:10;100220.81;;;9.52;51.44
54512;BME280;40419;47.438;19.026;2023-03-19T09:04:40;100225.63;;;9.72;50.38
54512;BME280;40419;47.438;19.026;2023-03-19T09:07:08;100211.56;;;9.62;49.81
54512;BME280;40419;47.438;19.026;2023-03-19T09:09:43;100213.34;;;9.69;50.30
54512;BME280;40419;47.438;19.026;2023-03-19T09:12:11;100211.47;;;9.85;49.46
54512;BME280;40419;47.438;19.026;2023-03-19T09:14:37;100208.47;;;9.80;50.01
54512;BME280;40419;47.438;19.026;2023-03-19T09:17:10;100213.22;;;9.92;49.89
54512;BME280;40419;47.438;19.026;2023-03-19T09:19:37;100217.44;;;10.17;47.89
54512;BME280;40419;47.438;19.026;2023-03-19T09:22:08;100213.03;;;9.79;47.61
54512;BME280;40419;47.438;19.026;2023-03-19T09:24:35;100213.69;;;9.81;48.11
54512;BME280;40419;47.438;19.026;2023-03-19T09:27:03;100210.19;;;10.02;48.27
54512;BME280;40419;47.438;19.026;2023-03-19T09:29:31;100207.59;;;9.94;48.54
54512;BME280;40419;47.438;19.026;2023-03-19T09:32:01;100209.94;;;10.19;47.55
54512;BME280;40419;47.438;19.026;2023-03-19T09:34:30;100203.13;;;10.23;46.84
54512;BME280;40419;47.438;19.026;2023-03-19T09:36:55;100203.19;;;10.29;47.55
54512;BME280;40419;47.438;19.026;2023-03-19T09:39:21;100197.16;;;10.49;47.83
54512;BME280;40419;47.438;19.026;2023-03-19T09:42:06;100192.09;;;10.39;46.76
54512;BME280;40419;47.438;19.026;2023-03-19T09:44:40;100202.34;;;10.44;47.33
54512;BME280;40419;47.438;19.026;2023-03-19T09:47:31;100191.44;;;10.01;46.29
54512;BME280;40419;47.438;19.026;2023-03-19T09:50:12;100186.69;;;10.39;45.85
54512;BME280;40419;47.438;19.026;2023-03-19T09:52:45;100178.28;;;10.56;45.68
54512;BME280;40419;47.438;19.026;2023-03-19T09:55:51;100189.19;;;10.41;46.45
54512;BME280;40419;47.438;19.026;2023-03-19T09:58:26;100186.28;;;10.42;45.48
54512;BME280;40419;47.438;19.026;2023-03-19T10:00:55;100185.47;;;10.42;45.77
54512;BME280;40419;47.438;19.026;2023-03-19T10:06:27;100179.66;;;10.95;45.06
54512;BME280;40419;47.438;19.026;2023-03-19T10:09:11;100177.88;;;11.15;44.64
54512;BME280;40419;47.438;19.026;2023-03-19T10:11:45;100183.44;;;11.01;45.04
54512;BME280;40419;47.438;19.026;2023-03-19T10:17:29;100179.19;;;10.91;45.44
54512;BME280;40419;47.438;19.026;2023-03-19T10:20:01;100182.88;;;10.84;45.53
54512;BME280;40419;47.438;19.026;2023-03-19T10:22:44;100174.31;;;11.08;45.12
54512;BME280;40419;47.438;19.026;2023-03-19T10:25:25;100169.31;;;11.12;45.21
54512;BME280;40419;47.438;19.026;2023-03-19T10:27:59;100169.00;;;11.28;43.76
54512;BME280;40419;47.438;19.026;2023-03-19T10:30:36;100159.13;;;11.14;44.40
54512;BME280;40419;47.438;19.026;2023-03-19T10:33:22;100166.91;;;11.24;44.96
54512;BME280;40419;47.438;19.026;2023-03-19T10:36:00;100157.78;;;11.38;44.47
54512;BME280;40419;47.438;19.026;2023-03-19T10:38:27;100145.78;;;11.61;43.79
54512;BME280;40419;47.438;19.026;2023-03-19T10:43:31;100148.75;;;11.73;42.70
54512;BME280;40419;47.438;19.026;2023-03-19T10:45:58;100156.50;;;11.76;42.75
54512;BME280;40419;47.438;19.026;2023-03-19T10:48:25;100148.38;;;11.82;42.31
54512;BME280;40419;47.438;19.026;2023-03-19T10:53:34;100139.59;;;11.80;42.79
54512;BME280;40419;47.438;19.026;2023-03-19T10:59:01;100122.84;;;11.63;42.47
54512;BME280;40419;47.438;19.026;2023-03-19T11:01:34;100124.91;;;11.55;41.96
54512;BME280;40419;47.438;19.026;2023-03-19T11:04:20;100126.91;;;11.87;42.62
54512;BME280;40419;47.438;19.026;2023-03-19T11:06:50;100116.63;;;11.63;42.26
54512;BME280;40419;47.438;19.026;2023-03-19T11:09:34;100117.69;;;11.82;41.85
54512;BME280;40419;47.438;19.026;2023-03-19T11:14:42;100102.53;;;12.08;42.37
54512;BME280;40419;47.438;19.026;2023-03-19T11:17:36;100105.91;;;12.23;42.06
54512;BME280;40419;47.438;19.026;2023-03-19T11:20:43;100107.13;;;12.07;42.09
54512;BME280;40419;47.438;19.026;2023-03-19T11:23:16;100087.09;;;12.15;42.00
54512;BME280;40419;47.438;19.026;2023-03-19T11:25:52;100080.63;;;12.16;42.24
54512;BME280;40419;47.438;19.026;2023-03-19T11:28:21;100083.13;;;12.24;42.07
54512;BME280;40419;47.438;19.026;2023-03-19T11:52:37;100061.16;;;12.79;40.21
54512;BME280;40419;47.438;19.026;2023-03-19T11:55:27;100055.09;;;12.84;40.43
54512;BME280;40419;47.438;19.026;2023-03-19T11:58:23;100051.13;;;12.80;41.09
54512;BME280;40419;47.438;19.026;2023-03-19T12:00:56;100048.56;;;12.98;39.38
54512;BME280;40419;47.438;19.026;2023-03-19T12:16:16;100033.13;;;12.85;40.43
54512;BME280;40419;47.438;19.026;2023-03-19T12:22:38;100020.94;;;13.01;40.07
54512;BME280;40419;47.438;19.026;2023-03-19T12:35:32;100014.41;;;13.16;40.13
54512;BME280;40419;47.438;19.026;2023-03-19T12:38:17;100003.75;;;13.14;40.77
54512;BME280;40419;47.438;19.026;2023-03-19T12:41:05;99996.25;;;13.09;40.45
54512;BME280;40419;47.438;19.026;2023-03-19T12:46:12;99995.00;;;13.12;40.66
54512;BME280;40419;47.438;19.026;2023-03-19T12:48:55;99986.19;;;13.17;39.31
54512;BME280;40419;47.438;19.026;2023-03-19T12:51:26;99979.81;;;13.29;39.22
54512;BME280;40419;47.438;19.026;2023-03-19T12:53:58;99986.13;;;13.30;39.85
54512;BME280;40419;47.438;19.026;2023-03-19T12:59:28;99969.88;;;13.10;39.75
54512;BME280;40419;47.438;19.026;2023-03-19T13:02:07;99959.28;;;13.47;39.47
54512;BME280;40419;47.438;19.026;2023-03-19T13:04:47;99966.34;;;13.48;39.11
54512;BME280;40419;47.438;19.026;2023-03-19T13:07:30;99954.78;;;13.59;39.52
54512;BME280;40419;47.438;19.026;2023-03-19T13:10:15;99948.53;;;13.59;39.42
54512;BME280;40419;47.438;19.026;2023-03-19T13:12:42;99951.25;;;13.59;39.29
54512;BME280;40419;47.438;19.026;2023-03-19T13:15:30;99943.56;;;13.49;38.75
54512;BME280;40419;47.438;19.026;2023-03-19T13:23:40;99956.09;;;13.11;39.06
54512;BME280;40419;47.438;19.026;2023-03-19T13:26:09;99950.78;;;12.85;39.46
54512;BME280;40419;47.438;19.026;2023-03-19T13:28:52;99946.22;;;12.72;39.79
54512;BME280;40419;47.438;19.026;2023-03-19T13:31:20;99943.94;;;12.69;39.78
54512;BME280;40419;47.438;19.026;2023-03-19T13:34:32;99945.84;;;12.68;40.26
54512;BME280;40419;47.438;19.026;2023-03-19T13:39:32;99935.75;;;12.75;39.62
54512;BME280;40419;47.438;19.026;2023-03-19T13:44:38;99927.44;;;12.70;40.30
54512;BME280;40419;47.438;19.026;2023-03-19T13:52:47;99904.78;;;12.90;40.50
54512;BME280;40419;47.438;19.026;2023-03-19T13:55:34;99916.91;;;12.87;40.37
54512;BME280;40419;47.438;19.026;2023-03-19T14:03:23;99899.97;;;13.24;40.29
54512;BME280;40419;47.438;19.026;2023-03-19T14:05:56;99902.38;;;13.45;39.29
54512;BME280;40419;47.438;19.026;2023-03-19T14:08:26;99898.38;;;13.73;38.50
54512;BME280;40419;47.438;19.026;2023-03-19T14:10:55;99893.16;;;13.72;38.13
54512;BME280;40419;47.438;19.026;2023-03-19T14:13:33;99893.38;;;13.70;38.08
54512;BME280;40419;47.438;19.026;2023-03-19T14:16:08;99895.97;;;13.58;38.82
54512;BME280;40419;47.438;19.026;2023-03-19T14:18:39;99894.13;;;13.59;37.73
54512;BME280;40419;47.438;19.026;2023-03-19T14:21:13;99898.41;;;13.41;38.97
54512;BME280;40419;47.438;19.026;2023-03-19T14:23:52;99895.97;;;13.26;39.46
54512;BME280;40419;47.438;19.026;2023-03-19T14:26:27;99893.47;;;13.25;38.59
54512;BME280;40419;47.438;19.026;2023-03-19T14:29:04;99896.38;;;13.30;39.03
54512;BME280;40419;47.438;19.026;2023-03-19T14:31:59;99891.69;;;13.12;39.90
54512;BME280;40419;47.438;19.026;2023-03-19T14:34:41;99894.81;;;13.16;39.97
54512;BME280;40419;47.438;19.026;2023-03-19T14:37:24;99888.34;;;13.10;40.23
54512;BME280;40419;47.438;19.026;2023-03-19T14:40:10;99888.13;;;13.11;39.71
54512;BME280;40419;47.438;19.026;2023-03-19T14:42:49;99892.47;;;13.19;39.53
54512;BME280;40419;47.438;19.026;2023-03-19T14:45:42;99887.25;;;13.18;40.75
54512;BME280;40419;47.438;19.026;2023-03-19T14:53:42;99899.28;;;13.03;40.49